createdAt,value
2022-10-29T00:02:06.704Z,52.30
2022-10-29T00:05:03.449Z,52.30
2022-10-29T00:08:00.476Z,52.30
2022-10-29T00:10:57.496Z,52.30
2022-10-29T00:13:54.522Z,52.30
2022-10-29T00:16:53.833Z,52.20
2022-10-29T00:23:13.624Z,52.30
2022-10-29T00:26:24.632Z,52.30
2022-10-29T00:29:35.965Z,52.20
2022-10-29T00:32:42.685Z,52.30
2022-10-29T00:36:00.032Z,52.30
2022-10-29T00:39:06.736Z,52.20
2022-10-29T00:42:24.091Z,52.20
2022-10-29T00:45:54.124Z,52.30
2022-10-29T00:49:00.162Z,52.20
2022-10-29T00:52:24.193Z,52.20
2022-10-29T00:55:36.222Z,52.20
2022-10-29T00:59:00.904Z,52.20
2022-10-29T01:55:47.333Z,52.10
2022-10-29T01:59:28.801Z,52.10
2022-10-29T02:03:11.445Z,52.10
2022-10-29T02:06:47.502Z,52.10
2022-10-29T02:38:38.674Z,52.10
2022-10-29T02:42:10.382Z,52.10
2022-10-29T02:45:37.255Z,52.10
2022-10-29T02:49:19.295Z,52.10
2022-10-29T02:52:49.317Z,52.10
2022-10-29T02:56:37.351Z,52.10
2022-10-29T03:00:07.379Z,52.00
2022-10-29T03:03:43.411Z,52.00
2022-10-29T03:07:13.444Z,52.00
2022-10-29T03:10:39.891Z,52.00
2022-10-29T03:14:13.504Z,52.00
2022-10-29T03:17:49.536Z,52.00
2022-10-29T03:21:19.571Z,52.00
2022-10-29T03:54:53.061Z,52.00
2022-10-29T03:58:23.096Z,52.00
2022-10-29T04:02:11.235Z,52.00
2022-10-29T04:05:47.159Z,52.00
2022-10-29T04:09:04.612Z,52.10
2022-10-29T04:12:59.386Z,51.90
2022-10-29T04:16:29.267Z,52.00
2022-10-29T04:19:59.297Z,52.00
2022-10-29T04:31:05.410Z,52.00
2022-10-29T04:34:35.445Z,52.00
2022-10-29T04:37:59.476Z,52.00
2022-10-29T04:41:11.509Z,51.90
2022-10-29T04:44:22.944Z,52.00
2022-10-29T04:47:46.972Z,52.00
2022-10-29T04:50:59.003Z,52.00
2022-10-29T04:54:05.642Z,52.00
2022-10-29T04:57:17.063Z,52.10
2022-10-29T05:00:23.703Z,52.10
2022-10-29T05:03:41.741Z,52.00
2022-10-29T05:06:47.772Z,52.10
2022-10-29T05:09:59.186Z,52.00
2022-10-29T05:13:05.834Z,52.00
2022-10-29T05:16:05.245Z,52.00
2022-10-29T05:19:29.280Z,51.90
2022-10-29T05:22:41.301Z,52.00
2022-10-29T05:25:47.962Z,52.00
2022-10-29T05:29:05.361Z,52.00
2022-10-29T05:32:12.028Z,52.00
2022-10-29T05:35:35.421Z,51.90
2022-10-29T05:38:42.091Z,52.00
2022-10-29T05:41:53.484Z,51.90
2022-10-29T05:45:00.155Z,52.00
2022-10-29T05:48:17.552Z,51.90
2022-10-29T05:51:24.218Z,52.00
2022-10-29T05:54:35.605Z,52.00
2022-10-29T05:57:42.276Z,51.90
2022-10-29T06:00:53.663Z,51.90
2022-10-29T06:04:18.330Z,51.90
2022-10-29T06:07:43.275Z,51.90
2022-10-29T06:10:54.389Z,51.80
2022-10-29T06:13:46.692Z,51.90
2022-10-29T06:17:05.803Z,51.90
2022-10-29T06:20:17.824Z,51.80
2022-10-29T06:23:30.497Z,51.90
2022-10-29T06:26:41.881Z,51.80
2022-10-29T06:29:48.551Z,51.90
2022-10-29T06:32:59.945Z,51.80
2022-10-29T06:35:54.606Z,51.90
2022-10-29T06:39:25.441Z,51.90
2022-10-29T06:43:01.474Z,51.80
2022-10-29T06:46:25.506Z,51.80
2022-10-29T06:49:55.537Z,51.80
2022-10-29T06:57:13.614Z,51.70
2022-10-29T07:00:37.752Z,51.70
2022-10-29T07:04:07.691Z,51.70
2022-10-29T07:08:01.731Z,51.60
2022-10-29T07:11:18.925Z,51.60
2022-10-29T07:14:31.805Z,51.60
2022-10-29T07:17:37.837Z,51.50
2022-10-29T07:20:45.455Z,51.40
2022-10-29T07:23:50.875Z,51.40
2022-10-29T07:26:51.473Z,51.40
2022-10-29T07:30:14.934Z,51.30
2022-10-29T07:33:26.956Z,51.20
2022-10-29T07:36:43.154Z,51.20
2022-10-29T07:39:51.021Z,51.20
2022-10-29T07:43:07.215Z,51.00
2022-10-29T07:46:26.114Z,50.90
2022-10-29T07:49:32.142Z,51.40
2022-10-29T07:52:44.181Z,50.70
2022-10-29T07:59:32.245Z,50.60
2022-10-29T08:03:14.281Z,50.70
2022-10-29T08:06:15.277Z,50.50
2022-10-29T08:13:03.436Z,50.70
2022-10-29T08:16:38.419Z,50.60
2022-10-29T08:20:20.457Z,50.60
2022-10-29T08:23:47.054Z,50.60
2022-10-29T08:26:45.959Z,50.70
2022-10-29T08:29:57.985Z,51.30
2022-10-29T08:33:08.724Z,50.60
2022-10-29T08:36:44.760Z,50.60
2022-10-29T08:39:44.787Z,50.60
2022-10-29T08:43:04.096Z,50.70
2022-10-29T08:46:16.125Z,50.90
2022-10-29T08:49:34.153Z,50.70
2022-10-29T08:53:22.477Z,50.70
2022-10-29T08:56:28.209Z,51.30
2022-10-29T08:59:46.239Z,50.50
2022-10-29T09:03:03.004Z,50.50
2022-10-29T09:06:22.296Z,50.40
2022-10-29T09:10:04.330Z,50.40
2022-10-29T09:13:28.372Z,50.30
2022-10-29T09:17:12.968Z,50.20
2022-10-29T09:20:45.152Z,49.90
2022-10-29T09:24:16.055Z,49.70
2022-10-29T09:27:40.491Z,49.50
2022-10-29T09:30:52.524Z,49.20
2022-10-29T09:34:04.163Z,49.30
2022-10-29T09:37:10.597Z,49.10
2022-10-29T09:40:22.216Z,49.00
2022-10-29T09:43:58.642Z,49.10
2022-10-29T09:47:16.674Z,48.80
2022-10-29T09:50:34.700Z,48.90
2022-10-29T09:53:46.355Z,48.70
2022-10-29T09:56:54.931Z,48.70
2022-10-29T10:00:16.786Z,48.60
2022-10-29T10:03:22.813Z,48.50
2022-10-29T10:06:41.501Z,48.50
2022-10-29T10:09:46.863Z,48.50
2022-10-29T10:13:15.919Z,48.60
2022-10-29T10:16:34.922Z,48.40
2022-10-29T10:19:52.958Z,48.60
2022-10-29T10:23:04.988Z,48.40
2022-10-29T10:26:11.018Z,48.60
2022-10-29T10:29:34.691Z,48.60
2022-10-29T10:32:53.324Z,48.60
2022-10-29T10:36:05.103Z,48.40
2022-10-29T10:39:11.128Z,48.50
2022-10-29T10:42:23.158Z,48.40
2022-10-29T10:45:34.846Z,48.40
2022-10-29T10:48:58.880Z,48.40
2022-10-29T10:52:10.901Z,48.40
2022-10-29T10:55:17.266Z,48.20
2022-10-29T10:58:29.300Z,48.40
2022-10-29T11:01:35.444Z,48.30
2022-10-29T11:04:53.356Z,48.30
2022-10-29T11:08:11.386Z,48.20
2022-10-29T11:11:40.181Z,48.40
2022-10-29T11:15:16.213Z,48.50
2022-10-29T11:18:52.241Z,48.60
2022-10-29T11:22:28.272Z,48.60
2022-10-29T11:25:58.302Z,48.70
2022-10-29T11:29:28.336Z,48.70
2022-10-29T11:32:58.745Z,48.80
2022-10-29T11:36:34.397Z,48.70
2022-10-29T11:39:58.424Z,48.70
2022-10-29T11:43:08.475Z,48.70
2022-10-29T11:46:16.479Z,48.80
2022-10-29T11:49:29.737Z,48.70
2022-10-29T11:52:35.719Z,48.80
2022-10-29T11:56:01.709Z,48.80
2022-10-29T11:59:11.823Z,48.70
2022-10-29T12:02:19.761Z,48.70
2022-10-29T12:05:31.787Z,48.80
2022-10-29T12:08:37.816Z,48.60
2022-10-29T12:11:59.934Z,48.60
2022-10-29T12:15:10.750Z,48.50
2022-10-29T12:18:22.911Z,48.40
2022-10-29T12:21:36.018Z,48.50
2022-10-29T12:24:37.002Z,48.40
2022-10-29T12:28:10.880Z,48.50
2022-10-29T12:56:32.638Z,48.70
2022-10-29T13:00:38.675Z,48.70
2022-10-29T13:04:32.703Z,48.70
2022-10-29T13:12:20.770Z,48.70
2022-10-29T13:15:38.808Z,48.70
2022-10-29T13:19:08.840Z,48.70
2022-10-29T13:23:44.877Z,48.70
2022-10-29T13:27:50.539Z,48.70
2022-10-29T13:30:56.943Z,48.70
2022-10-29T13:34:14.966Z,48.80
2022-10-29T13:37:38.627Z,48.80
2022-10-29T13:41:14.654Z,48.90
2022-10-29T13:44:27.060Z,48.90
2022-10-29T13:47:50.723Z,48.90
2022-10-29T13:51:15.160Z,48.90
2022-10-29T13:54:32.794Z,48.90
2022-10-29T13:57:51.173Z,48.90
2022-10-29T14:01:02.945Z,49.00
2022-10-29T14:04:09.226Z,49.00
2022-10-29T14:07:13.124Z,49.00
2022-10-29T14:10:13.151Z,49.00
2022-10-29T14:13:13.185Z,48.90
2022-10-29T14:16:32.997Z,48.90
2022-10-29T14:19:33.362Z,49.00
2022-10-29T14:22:51.051Z,49.00
2022-10-29T14:25:55.315Z,49.00
2022-10-29T14:28:57.113Z,49.00
2022-10-29T14:32:19.383Z,49.10
2022-10-29T14:35:21.173Z,49.00
2022-10-29T14:38:25.426Z,49.20
2022-10-29T14:41:27.230Z,49.10
2022-10-29T14:44:31.485Z,49.20
2022-10-29T14:47:45.281Z,49.20
2022-10-29T14:50:49.542Z,49.10
2022-10-29T14:53:51.335Z,49.20
2022-10-29T14:57:01.598Z,49.30
2022-10-29T15:00:03.389Z,49.20
2022-10-29T15:03:13.768Z,49.20
2022-10-29T15:06:27.442Z,49.30
2022-10-29T15:09:37.719Z,49.30
2022-10-29T15:12:45.497Z,49.40
2022-10-29T15:15:51.530Z,49.40
2022-10-29T15:19:03.555Z,49.50
2022-10-29T15:22:01.833Z,49.40
2022-10-29T15:25:03.605Z,49.50
2022-10-29T15:28:07.893Z,49.30
2022-10-29T15:31:09.665Z,49.30
2022-10-29T15:34:19.958Z,49.40
2022-10-29T15:37:45.734Z,49.30
2022-10-29T15:40:52.071Z,49.40
2022-10-29T15:44:10.100Z,49.50
2022-10-29T15:47:16.128Z,49.50
2022-10-29T15:50:28.195Z,49.50
2022-10-29T15:53:34.998Z,49.60
2022-10-29T15:56:41.022Z,49.60
2022-10-29T15:59:46.236Z,49.50
2022-10-29T16:02:52.263Z,49.70
2022-10-29T16:06:04.287Z,49.70
2022-10-29T16:09:05.128Z,49.70
2022-10-29T16:12:10.341Z,49.80
2022-10-29T16:15:16.459Z,49.60
2022-10-29T16:18:22.397Z,49.60
2022-10-29T16:21:34.423Z,49.80
2022-10-29T16:24:40.453Z,49.70
2022-10-29T16:27:46.478Z,49.70
2022-10-29T16:30:52.503Z,49.70
2022-10-29T16:33:59.345Z,49.70
2022-10-29T16:37:10.557Z,49.70
2022-10-29T16:40:16.587Z,49.80
2022-10-29T16:43:20.625Z,49.80
2022-10-29T16:46:20.472Z,49.90
2022-10-29T16:49:17.473Z,49.90
2022-10-29T16:52:24.098Z,50.00
2022-10-29T16:55:23.526Z,49.90
2022-10-29T16:58:26.770Z,50.00
2022-10-29T17:01:32.488Z,49.90
2022-10-29T17:04:38.936Z,50.00
2022-10-29T17:07:50.856Z,50.00
2022-10-29T17:10:56.884Z,50.10
2022-10-29T17:14:02.911Z,50.10
2022-10-29T17:17:08.891Z,50.10
2022-10-29T17:20:14.985Z,50.10
2022-10-29T17:23:27.014Z,50.20
2022-10-29T17:26:38.743Z,50.10
2022-10-29T17:30:05.830Z,50.20
2022-10-29T17:33:31.095Z,50.20
2022-10-29T17:36:59.892Z,50.20
2022-10-29T17:40:38.978Z,50.40
2022-10-29T17:44:03.008Z,50.30
2022-10-29T17:47:27.100Z,50.40
2022-10-29T17:50:51.071Z,50.30
2022-10-29T17:54:21.109Z,50.40
2022-10-29T17:57:57.455Z,50.40
2022-10-29T18:01:24.196Z,50.30
2022-10-29T18:04:54.130Z,50.30
2022-10-29T18:33:22.067Z,50.40
2022-10-29T18:36:52.096Z,50.50
2022-10-29T18:40:09.555Z,50.50
2022-10-29T18:43:16.224Z,50.60
2022-10-29T18:46:33.611Z,50.60
2022-10-29T18:49:45.640Z,50.70
2022-10-29T18:52:58.006Z,50.70
2022-10-29T18:56:15.702Z,50.60
2022-10-29T18:59:27.727Z,50.80
2022-10-29T19:02:36.361Z,50.80
2022-10-29T19:05:52.431Z,50.80
2022-10-29T19:08:58.422Z,50.70
2022-10-29T19:12:09.858Z,50.80
2022-10-29T19:15:21.893Z,50.80
2022-10-29T19:18:33.924Z,50.70
2022-10-29T19:21:51.958Z,50.90
2022-10-29T19:24:57.991Z,50.80
2022-10-29T19:28:04.560Z,50.70
2022-10-29T19:31:16.039Z,50.90
2022-10-29T19:34:28.137Z,50.80
2022-10-29T19:37:42.958Z,50.90
2022-10-29T19:40:52.669Z,50.80
2022-10-29T19:44:04.148Z,50.70
2022-10-29T19:47:16.730Z,50.70
2022-10-29T19:50:28.206Z,50.80
2022-10-29T19:53:46.234Z,50.90
2022-10-29T19:56:58.256Z,50.80
2022-10-29T20:00:14.852Z,50.80
2022-10-29T20:03:26.671Z,50.70
2022-10-29T20:06:40.351Z,50.70
2022-10-29T20:09:58.374Z,50.70
2022-10-29T20:13:04.991Z,50.70
2022-10-29T20:16:11.024Z,50.80
2022-10-29T20:19:22.454Z,50.70
2022-10-29T20:22:34.483Z,50.80
2022-10-29T20:25:52.509Z,50.80
2022-10-29T20:29:04.537Z,50.80
2022-10-29T20:32:18.498Z,50.80
2022-10-29T20:35:25.375Z,50.80
2022-10-29T20:38:34.629Z,50.70
2022-10-29T20:41:46.653Z,50.80
2022-10-29T20:44:57.637Z,50.80
2022-10-29T20:48:17.330Z,50.90
2022-10-29T20:51:41.354Z,50.80
2022-10-29T20:55:00.694Z,50.70
2022-10-29T20:58:35.417Z,50.80
2022-10-29T21:02:00.876Z,50.80
2022-10-29T21:05:18.776Z,50.80
2022-10-29T21:08:47.507Z,50.70
2022-10-29T21:12:11.536Z,50.80
2022-10-29T21:15:23.562Z,50.90
2022-10-29T21:18:47.598Z,50.80
2022-10-29T21:22:05.620Z,50.80
2022-10-29T21:25:24.957Z,50.80
2022-10-29T21:28:49.000Z,50.90
2022-10-29T21:32:20.583Z,50.90
2022-10-29T21:35:41.756Z,50.90
2022-10-29T21:38:47.299Z,50.90
2022-10-29T21:41:53.812Z,50.90
2022-10-29T21:45:11.356Z,50.80
2022-10-29T21:48:11.867Z,50.90
2022-10-29T21:51:13.206Z,51.00
2022-10-29T21:54:05.915Z,51.00
2022-10-29T21:57:01.626Z,51.00
2022-10-29T21:59:59.968Z,50.90
2022-10-29T22:03:04.167Z,50.90
2022-10-29T22:06:12.122Z,50.90
2022-10-29T22:09:18.091Z,50.90
2022-10-29T22:12:25.401Z,50.90
2022-10-29T22:15:30.240Z,51.00
2022-10-29T22:18:35.647Z,51.00
2022-10-29T22:21:43.477Z,51.00
2022-10-29T22:24:49.507Z,51.00
2022-10-29T22:27:49.531Z,51.00
2022-10-29T22:30:53.753Z,51.10
2022-10-29T22:34:07.589Z,51.00
2022-10-29T22:37:17.806Z,51.10
2022-10-29T22:40:41.835Z,51.00
2022-10-29T22:44:11.863Z,51.00
2022-10-29T22:47:35.893Z,51.00
2022-10-29T22:51:05.925Z,51.10
2022-10-29T22:54:41.962Z,51.10
2022-10-29T22:57:59.997Z,51.10
2022-10-29T23:01:38.814Z,51.20
2022-10-29T23:05:06.065Z,51.10
2022-10-29T23:08:25.886Z,51.10
2022-10-29T23:11:55.915Z,51.10
2022-10-29T23:15:20.199Z,51.10
2022-10-29T23:18:48.207Z,51.10
2022-10-29T23:22:12.353Z,51.00
2022-10-29T23:25:30.278Z,51.10
2022-10-29T23:29:06.312Z,51.70
2022-10-29T23:32:36.340Z,51.10
2022-10-29T23:35:54.370Z,51.10
2022-10-29T23:39:06.397Z,51.10
2022-10-29T23:42:07.053Z,51.10
2022-10-29T23:45:08.205Z,51.10
2022-10-29T23:48:08.469Z,51.10
2022-10-29T23:51:13.142Z,51.10
2022-10-29T23:54:13.165Z,51.10
2022-10-29T23:57:14.309Z,51.10
